sensor_id;sensor_type;location;lat;lon;timestamp;temperature;humidity
9403;DHT22;4741;49.834;10.740;2023-07-30T08:59:03;21.50;99.90
9403;DHT22;4741;49.834;10.740;2023-07-30T09:01:30;21.50;99.90
9403;DHT22;4741;49.834;10.740;2023-07-30T09:03:59;21.60;99.90
9403;DHT22;4741;49.834;10.740;2023-07-30T09:06:29;21.70;99.90
9403;DHT22;4741;49.834;10.740;2023-07-30T09:08:56;22.10;99.90
9403;DHT22;4741;49.834;10.740;2023-07-30T09:11:25;22.20;99.90
9403;DHT22;4741;49.834;10.740;2023-07-30T09:13:52;22.10;99.90
9403;DHT22;4741;49.834;10.740;2023-07-30T09:16:19;22.40;99.90
9403;DHT22;4741;49.834;10.740;2023-07-30T09:18:46;22.30;99.90
9403;DHT22;4741;49.834;10.740;2023-07-30T09:21:16;22.50;99.90
9403;DHT22;4741;49.834;10.740;2023-07-30T09:23:44;22.80;99.90
9403;DHT22;4741;49.834;10.740;2023-07-30T09:26:10;22.50;99.90
9403;DHT22;4741;49.834;10.740;2023-07-30T09:28:37;22.20;99.90
9403;DHT22;4741;49.834;10.740;2023-07-30T09:31:04;22.10;99.90
9403;DHT22;4741;49.834;10.740;2023-07-30T09:33:47;22.10;99.90
9403;DHT22;4741;49.834;10.740;2023-07-30T09:36:14;22.30;99.90
9403;DHT22;4741;49.834;10.740;2023-07-30T09:38:42;22.30;99.90
9403;DHT22;4741;49.834;10.740;2023-07-30T09:41:09;22.40;99.90
9403;DHT22;4741;49.834;10.740;2023-07-30T09:43:37;22.30;99.90
9403;DHT22;4741;49.834;10.740;2023-07-30T09:46:07;22.50;99.90
9403;DHT22;4741;49.834;10.740;2023-07-30T09:48:34;22.60;99.90
9403;DHT22;4741;49.834;10.740;2023-07-30T09:51:02;22.80;99.90
9403;DHT22;4741;49.834;10.740;2023-07-30T09:53:29;23.10;99.90
9403;DHT22;4741;49.834;10.740;2023-07-30T09:55:56;23.30;99.90
9403;DHT22;4741;49.834;10.740;2023-07-30T09:58:23;23.00;99.90
9403;DHT22;4741;49.834;10.740;2023-07-30T10:00:50;23.10;99.90
9403;DHT22;4741;49.834;10.740;2023-07-30T10:03:17;23.00;99.90
9403;DHT22;4741;49.834;10.740;2023-07-30T10:05:44;23.00;99.90
9403;DHT22;4741;49.834;10.740;2023-07-30T10:08:16;23.30;99.90
9403;DHT22;4741;49.834;10.740;2023-07-30T10:10:43;23.00;99.90
9403;DHT22;4741;49.834;10.740;2023-07-30T10:13:10;22.60;99.90
9403;DHT22;4741;49.834;10.740;2023-07-30T10:15:38;22.80;99.90
9403;DHT22;4741;49.834;10.740;2023-07-30T10:18:05;22.70;99.90
9403;DHT22;4741;49.834;10.740;2023-07-30T10:20:32;22.60;99.90
9403;DHT22;4741;49.834;10.740;2023-07-30T10:22:59;22.80;99.90
9403;DHT22;4741;49.834;10.740;2023-07-30T10:25:43;22.90;99.90
9403;DHT22;4741;49.834;10.740;2023-07-30T10:28:26;22.70;99.90
9403;DHT22;4741;49.834;10.740;2023-07-30T10:30:56;22.40;99.90
9403;DHT22;4741;49.834;10.740;2023-07-30T10:33:23;22.80;99.90
9403;DHT22;4741;49.834;10.740;2023-07-30T10:35:53;22.50;99.90
9403;DHT22;4741;49.834;10.740;2023-07-30T10:38:30;22.20;99.90
9403;DHT22;4741;49.834;10.740;2023-07-30T10:41:00;22.20;99.90
9403;DHT22;4741;49.834;10.740;2023-07-30T10:43:28;21.70;99.90
9403;DHT22;4741;49.834;10.740;2023-07-30T10:45:55;20.70;99.90
9403;DHT22;4741;49.834;10.740;2023-07-30T10:48:42;20.00;99.90
9403;DHT22;4741;49.834;10.740;2023-07-30T10:51:11;19.70;99.90
9403;DHT22;4741;49.834;10.740;2023-07-30T10:53:37;19.80;99.90
9403;DHT22;4741;49.834;10.740;2023-07-30T10:56:06;19.80;99.90
9403;DHT22;4741;49.834;10.740;2023-07-30T10:58:34;20.00;99.90
9403;DHT22;4741;49.834;10.740;2023-07-30T11:01:01;20.40;99.90
9403;DHT22;4741;49.834;10.740;2023-07-30T11:03:28;20.00;99.90
9403;DHT22;4741;49.834;10.740;2023-07-30T11:05:55;20.40;99.90
9403;DHT22;4741;49.834;10.740;2023-07-30T11:08:35;20.40;99.90
9403;DHT22;4741;49.834;10.740;2023-07-30T11:11:03;20.40;99.90
9403;DHT22;4741;49.834;10.740;2023-07-30T11:13:29;20.40;99.90
9403;DHT22;4741;49.834;10.740;2023-07-30T11:16:01;20.80;99.90
9403;DHT22;4741;49.834;10.740;2023-07-30T11:18:30;20.80;99.90
9403;DHT22;4741;49.834;10.740;2023-07-30T11:21:07;21.10;99.90
9403;DHT22;4741;49.834;10.740;2023-07-30T11:23:34;21.20;99.90
9403;DHT22;4741;49.834;10.740;2023-07-30T11:26:02;21.30;99.90
9403;DHT22;4741;49.834;10.740;2023-07-30T11:30:59;21.90;99.90
9403;DHT22;4741;49.834;10.740;2023-07-30T11:33:27;21.60;99.90
9403;DHT22;4741;49.834;10.740;2023-07-30T11:35:55;21.90;99.90
9403;DHT22;4741;49.834;10.740;2023-07-30T11:38:26;22.00;99.90
9403;DHT22;4741;49.834;10.740;2023-07-30T11:40:53;22.00;99.90
9403;DHT22;4741;49.834;10.740;2023-07-30T11:43:21;22.60;99.90
9403;DHT22;4741;49.834;10.740;2023-07-30T11:45:48;23.10;99.90
9403;DHT22;4741;49.834;10.740;2023-07-30T11:48:15;23.20;99.90
9403;DHT22;4741;49.834;10.740;2023-07-30T11:50:45;23.40;99.90
9403;DHT22;4741;49.834;10.740;2023-07-30T11:53:12;23.50;99.90
9403;DHT22;4741;49.834;10.740;2023-07-30T11:55:40;23.70;99.90
9403;DHT22;4741;49.834;10.740;2023-07-30T11:58:07;24.00;99.90
9403;DHT22;4741;49.834;10.740;2023-07-30T12:00:34;23.80;99.90
9403;DHT22;4741;49.834;10.740;2023-07-30T12:03:02;23.70;99.90
9403;DHT22;4741;49.834;10.740;2023-07-30T12:17:50;25.40;99.90
9403;DHT22;4741;49.834;10.740;2023-07-30T12:20:17;25.30;99.90
9403;DHT22;4741;49.834;10.740;2023-07-30T12:22:44;24.50;99.90
9403;DHT22;4741;49.834;10.740;2023-07-30T12:25:11;25.00;99.90
9403;DHT22;4741;49.834;10.740;2023-07-30T12:27:37;24.70;99.90
9403;DHT22;4741;49.834;10.740;2023-07-30T12:30:04;24.40;99.90
9403;DHT22;4741;49.834;10.740;2023-07-30T12:32:31;25.10;99.90
9403;DHT22;4741;49.834;10.740;2023-07-30T12:34:58;25.20;99.90
9403;DHT22;4741;49.834;10.740;2023-07-30T13:36:15;25.60;99.90
9403;DHT22;4741;49.834;10.740;2023-07-30T13:38:42;25.40;99.90
9403;DHT22;4741;49.834;10.740;2023-07-30T13:41:09;26.00;99.90
9403;DHT22;4741;49.834;10.740;2023-07-30T13:43:36;24.50;99.90
9403;DHT22;4741;49.834;10.740;2023-07-30T13:46:03;24.60;99.90
9403;DHT22;4741;49.834;10.740;2023-07-30T13:48:29;25.20;99.90
9403;DHT22;4741;49.834;10.740;2023-07-30T13:50:56;24.90;99.90
9403;DHT22;4741;49.834;10.740;2023-07-30T13:53:23;25.90;99.90
9403;DHT22;4741;49.834;10.740;2023-07-30T13:55:50;25.50;99.90
9403;DHT22;4741;49.834;10.740;2023-07-30T13:58:17;24.80;99.90
9403;DHT22;4741;49.834;10.740;2023-07-30T14:00:43;25.40;99.90
9403;DHT22;4741;49.834;10.740;2023-07-30T14:03:10;24.90;99.90
9403;DHT22;4741;49.834;10.740;2023-07-30T14:05:38;25.90;99.90
9403;DHT22;4741;49.834;10.740;2023-07-30T14:08:05;26.40;99.90
9403;DHT22;4741;49.834;10.740;2023-07-30T14:10:31;25.00;99.90
9403;DHT22;4741;49.834;10.740;2023-07-30T14:12:58;24.00;99.90
9403;DHT22;4741;49.834;10.740;2023-07-30T14:15:25;24.50;99.90
9403;DHT22;4741;49.834;10.740;2023-07-30T14:17:51;24.60;99.90
9403;DHT22;4741;49.834;10.740;2023-07-30T14:20:19;26.40;99.90
9403;DHT22;4741;49.834;10.740;2023-07-30T14:22:46;27.30;99.90
9403;DHT22;4741;49.834;10.740;2023-07-30T14:25:12;27.10;99.90
9403;DHT22;4741;49.834;10.740;2023-07-30T14:27:39;24.90;99.90
9403;DHT22;4741;49.834;10.740;2023-07-30T14:30:06;25.20;99.90
9403;DHT22;4741;49.834;10.740;2023-07-30T14:32:33;24.80;99.90
9403;DHT22;4741;49.834;10.740;2023-07-30T14:34:59;25.10;99.90
9403;DHT22;4741;49.834;10.740;2023-07-30T14:37:26;26.10;99.90
9403;DHT22;4741;49.834;10.740;2023-07-30T14:39:53;25.00;99.90
9403;DHT22;4741;49.834;10.740;2023-07-30T14:42:20;25.30;99.90
9403;DHT22;4741;49.834;10.740;2023-07-30T14:44:46;26.20;99.90
9403;DHT22;4741;49.834;10.740;2023-07-30T14:47:13;25.50;99.90
9403;DHT22;4741;49.834;10.740;2023-07-30T14:49:40;26.60;99.90
9403;DHT22;4741;49.834;10.740;2023-07-30T14:52:06;26.50;99.90
9403;DHT22;4741;49.834;10.740;2023-07-30T14:54:33;27.40;99.90
9403;DHT22;4741;49.834;10.740;2023-07-30T14:57:00;26.50;99.90
9403;DHT22;4741;49.834;10.740;2023-07-30T14:59:27;26.00;99.90
9403;DHT22;4741;49.834;10.740;2023-07-30T15:01:53;26.40;99.90
9403;DHT22;4741;49.834;10.740;2023-07-30T15:04:20;27.70;99.90
9403;DHT22;4741;49.834;10.740;2023-07-30T15:06:47;27.60;99.90
9403;DHT22;4741;49.834;10.740;2023-07-30T15:09:14;27.30;99.90
9403;DHT22;4741;49.834;10.740;2023-07-30T15:11:40;26.30;99.90
9403;DHT22;4741;49.834;10.740;2023-07-30T15:14:07;25.30;99.90
9403;DHT22;4741;49.834;10.740;2023-07-30T15:16:34;26.40;99.90
9403;DHT22;4741;49.834;10.740;2023-07-30T15:19:01;26.30;99.90
9403;DHT22;4741;49.834;10.740;2023-07-30T15:21:29;26.60;99.90
9403;DHT22;4741;49.834;10.740;2023-07-30T15:23:56;27.80;99.90
9403;DHT22;4741;49.834;10.740;2023-07-30T15:26:24;27.30;99.90
9403;DHT22;4741;49.834;10.740;2023-07-30T15:28:51;27.00;99.90
9403;DHT22;4741;49.834;10.740;2023-07-30T15:31:18;26.30;99.90
9403;DHT22;4741;49.834;10.740;2023-07-30T15:33:44;25.70;99.90
9403;DHT22;4741;49.834;10.740;2023-07-30T15:36:11;25.40;99.90
9403;DHT22;4741;49.834;10.740;2023-07-30T15:38:38;25.10;99.90
9403;DHT22;4741;49.834;10.740;2023-07-30T15:41:04;24.20;99.90
9403;DHT22;4741;49.834;10.740;2023-07-30T15:43:31;24.10;99.90
9403;DHT22;4741;49.834;10.740;2023-07-30T15:45:58;24.70;99.90
9403;DHT22;4741;49.834;10.740;2023-07-30T15:48:28;25.00;99.90
9403;DHT22;4741;49.834;10.740;2023-07-30T15:50:55;25.60;99.90
9403;DHT22;4741;49.834;10.740;2023-07-30T15:53:22;24.00;99.90
9403;DHT22;4741;49.834;10.740;2023-07-30T15:55:49;23.90;99.90
9403;DHT22;4741;49.834;10.740;2023-07-30T15:58:15;23.20;99.90
9403;DHT22;4741;49.834;10.740;2023-07-30T16:00:42;22.80;99.90
9403;DHT22;4741;49.834;10.740;2023-07-30T16:03:09;22.80;99.90
9403;DHT22;4741;49.834;10.740;2023-07-30T16:05:36;23.90;99.90
9403;DHT22;4741;49.834;10.740;2023-07-30T16:08:03;24.40;99.90
9403;DHT22;4741;49.834;10.740;2023-07-30T16:10:30;23.00;99.90
9403;DHT22;4741;49.834;10.740;2023-07-30T16:12:57;24.00;99.90
9403;DHT22;4741;49.834;10.740;2023-07-30T16:15:25;24.30;99.90
9403;DHT22;4741;49.834;10.740;2023-07-30T16:17:52;24.70;99.90
9403;DHT22;4741;49.834;10.740;2023-07-30T16:20:19;24.90;99.90
9403;DHT22;4741;49.834;10.740;2023-07-30T16:22:47;24.40;99.90
9403;DHT22;4741;49.834;10.740;2023-07-30T16:25:13;24.20;99.90
9403;DHT22;4741;49.834;10.740;2023-07-30T16:27:40;24.50;99.90
9403;DHT22;4741;49.834;10.740;2023-07-30T16:30:07;24.00;99.90
9403;DHT22;4741;49.834;10.740;2023-07-30T16:32:34;24.50;99.90
9403;DHT22;4741;49.834;10.740;2023-07-30T16:35:00;24.70;99.90
9403;DHT22;4741;49.834;10.740;2023-07-30T16:37:27;25.40;99.90
9403;DHT22;4741;49.834;10.740;2023-07-30T16:39:54;24.50;99.90
9403;DHT22;4741;49.834;10.740;2023-07-30T16:42:21;25.00;99.90
9403;DHT22;4741;49.834;10.740;2023-07-30T16:44:48;25.90;99.90
9403;DHT22;4741;49.834;10.740;2023-07-30T16:47:14;25.20;99.90
9403;DHT22;4741;49.834;10.740;2023-07-30T16:49:41;25.00;99.90
9403;DHT22;4741;49.834;10.740;2023-07-30T16:52:08;25.30;99.90
9403;DHT22;4741;49.834;10.740;2023-07-30T16:54:34;25.10;99.90
9403;DHT22;4741;49.834;10.740;2023-07-30T16:57:01;24.00;99.90
9403;DHT22;4741;49.834;10.740;2023-07-30T16:59:28;22.90;99.90
9403;DHT22;4741;49.834;10.740;2023-07-30T17:01:54;22.80;99.90
9403;DHT22;4741;49.834;10.740;2023-07-30T17:04:22;22.10;99.90
9403;DHT22;4741;49.834;10.740;2023-07-30T18:18:02;20.00;99.90
9403;DHT22;4741;49.834;10.740;2023-07-30T18:20:30;19.90;99.90
9403;DHT22;4741;49.834;10.740;2023-07-30T18:22:58;19.80;99.90
9403;DHT22;4741;49.834;10.740;2023-07-30T18:25:25;19.60;99.90
9403;DHT22;4741;49.834;10.740;2023-07-30T18:27:51;19.50;99.90
9403;DHT22;4741;49.834;10.740;2023-07-30T18:30:18;19.40;99.90
9403;DHT22;4741;49.834;10.740;2023-07-30T18:32:45;19.30;99.90
9403;DHT22;4741;49.834;10.740;2023-07-30T18:35:12;19.10;99.90
9403;DHT22;4741;49.834;10.740;2023-07-30T18:37:38;19.10;99.90
9403;DHT22;4741;49.834;10.740;2023-07-30T18:40:06;19.10;99.90
9403;DHT22;4741;49.834;10.740;2023-07-30T18:42:33;19.20;99.90
9403;DHT22;4741;49.834;10.740;2023-07-30T18:45:00;19.10;99.90
9403;DHT22;4741;49.834;10.740;2023-07-30T18:47:26;18.90;99.90
9403;DHT22;4741;49.834;10.740;2023-07-30T18:49:53;18.90;99.90
9403;DHT22;4741;49.834;10.740;2023-07-30T18:52:20;18.90;99.90
9403;DHT22;4741;49.834;10.740;2023-07-30T18:54:46;18.70;99.90
9403;DHT22;4741;49.834;10.740;2023-07-30T18:57:13;18.70;99.90
9403;DHT22;4741;49.834;10.740;2023-07-30T18:59:40;18.60;99.90
9403;DHT22;4741;49.834;10.740;2023-07-30T19:02:10;18.50;99.90
9403;DHT22;4741;49.834;10.740;2023-07-30T19:04:37;18.40;99.90
9403;DHT22;4741;49.834;10.740;2023-07-30T19:07:03;18.10;99.90
9403;DHT22;4741;49.834;10.740;2023-07-30T19:09:30;18.10;99.90
9403;DHT22;4741;49.834;10.740;2023-07-30T19:11:58;17.90;99.90
9403;DHT22;4741;49.834;10.740;2023-07-30T19:14:25;17.80;99.90
9403;DHT22;4741;49.834;10.740;2023-07-30T19:16:51;17.80;99.90
9403;DHT22;4741;49.834;10.740;2023-07-30T19:19:18;17.80;99.90
9403;DHT22;4741;49.834;10.740;2023-07-30T19:21:45;17.70;99.90
9403;DHT22;4741;49.834;10.740;2023-07-30T19:24:16;17.70;99.90
9403;DHT22;4741;49.834;10.740;2023-07-30T19:26:42;17.60;99.90
9403;DHT22;4741;49.834;10.740;2023-07-30T19:29:09;17.50;99.90
9403;DHT22;4741;49.834;10.740;2023-07-30T19:31:36;17.50;99.90
9403;DHT22;4741;49.834;10.740;2023-07-30T19:34:06;17.40;99.90
9403;DHT22;4741;49.834;10.740;2023-07-30T19:36:36;17.30;99.90
9403;DHT22;4741;49.834;10.740;2023-07-30T19:41:30;17.30;99.90
9403;DHT22;4741;49.834;10.740;2023-07-30T19:43:57;17.20;99.90
9403;DHT22;4741;49.834;10.740;2023-07-30T19:46:24;17.20;99.90
9403;DHT22;4741;49.834;10.740;2023-07-30T19:48:51;17.20;99.90
9403;DHT22;4741;49.834;10.740;2023-07-30T19:51:18;17.20;99.90
9403;DHT22;4741;49.834;10.740;2023-07-30T19:53:45;17.30;99.90
9403;DHT22;4741;49.834;10.740;2023-07-30T19:56:11;17.20;99.90
9403;DHT22;4741;49.834;10.740;2023-07-30T19:58:38;17.20;99.90
9403;DHT22;4741;49.834;10.740;2023-07-30T20:01:05;17.20;99.90
9403;DHT22;4741;49.834;10.740;2023-07-30T20:03:32;17.10;99.90
9403;DHT22;4741;49.834;10.740;2023-07-30T20:05:59;17.10;99.90
9403;DHT22;4741;49.834;10.740;2023-07-30T20:10:53;17.00;99.90
9403;DHT22;4741;49.834;10.740;2023-07-30T20:13:21;16.80;99.90
9403;DHT22;4741;49.834;10.740;2023-07-30T20:15:48;16.80;99.90
9403;DHT22;4741;49.834;10.740;2023-07-30T20:18:15;16.90;99.90
9403;DHT22;4741;49.834;10.740;2023-07-30T20:20:41;16.80;99.90
9403;DHT22;4741;49.834;10.740;2023-07-30T20:23:08;16.70;99.90
9403;DHT22;4741;49.834;10.740;2023-07-30T20:25:35;16.60;99.90
9403;DHT22;4741;49.834;10.740;2023-07-30T20:28:02;16.50;99.90
9403;DHT22;4741;49.834;10.740;2023-07-30T20:30:31;16.40;99.90
9403;DHT22;4741;49.834;10.740;2023-07-30T20:32:58;16.20;99.90
9403;DHT22;4741;49.834;10.740;2023-07-30T20:35:25;16.10;99.90
9403;DHT22;4741;49.834;10.740;2023-07-30T20:37:52;16.10;99.90
9403;DHT22;4741;49.834;10.740;2023-07-30T20:40:23;15.90;99.90
9403;DHT22;4741;49.834;10.740;2023-07-30T20:45:21;15.80;99.90
9403;DHT22;4741;49.834;10.740;2023-07-30T20:47:49;15.60;99.90
9403;DHT22;4741;49.834;10.740;2023-07-30T20:50:16;15.60;99.90
9403;DHT22;4741;49.834;10.740;2023-07-30T20:52:43;15.60;99.90
9403;DHT22;4741;49.834;10.740;2023-07-30T20:55:11;15.80;99.90
9403;DHT22;4741;49.834;10.740;2023-07-30T20:57:39;15.70;99.90
9403;DHT22;4741;49.834;10.740;2023-07-30T21:00:06;15.70;99.90
9403;DHT22;4741;49.834;10.740;2023-07-30T21:02:33;15.60;99.90
9403;DHT22;4741;49.834;10.740;2023-07-30T21:05:00;15.50;99.90
9403;DHT22;4741;49.834;10.740;2023-07-30T21:07:27;15.50;99.90
9403;DHT22;4741;49.834;10.740;2023-07-30T21:09:53;15.40;99.90
9403;DHT22;4741;49.834;10.740;2023-07-30T21:12:21;15.30;99.90
9403;DHT22;4741;49.834;10.740;2023-07-30T21:14:48;15.20;99.90
9403;DHT22;4741;49.834;10.740;2023-07-30T21:17:14;15.30;99.90
9403;DHT22;4741;49.834;10.740;2023-07-30T21:19:41;15.40;99.90
9403;DHT22;4741;49.834;10.740;2023-07-30T21:22:08;15.40;99.90
9403;DHT22;4741;49.834;10.740;2023-07-30T21:24:35;15.40;99.90
9403;DHT22;4741;49.834;10.740;2023-07-30T21:27:02;15.40;99.90
9403;DHT22;4741;49.834;10.740;2023-07-30T21:29:29;15.30;99.90
9403;DHT22;4741;49.834;10.740;2023-07-30T21:31:55;15.20;99.90
9403;DHT22;4741;49.834;10.740;2023-07-30T21:34:22;15.10;99.90
9403;DHT22;4741;49.834;10.740;2023-07-30T21:36:49;15.10;99.90
9403;DHT22;4741;49.834;10.740;2023-07-30T21:39:15;15.00;99.90
9403;DHT22;4741;49.834;10.740;2023-07-30T21:41:42;15.00;99.90
9403;DHT22;4741;49.834;10.740;2023-07-30T21:44:09;15.00;99.90
9403;DHT22;4741;49.834;10.740;2023-07-30T21:46:35;15.20;99.90
9403;DHT22;4741;49.834;10.740;2023-07-30T21:49:03;15.30;99.90
9403;DHT22;4741;49.834;10.740;2023-07-30T21:51:29;15.50;99.90
9403;DHT22;4741;49.834;10.740;2023-07-30T21:53:56;15.60;99.90
9403;DHT22;4741;49.834;10.740;2023-07-30T21:56:23;15.70;99.90
9403;DHT22;4741;49.834;10.740;2023-07-30T21:58:50;15.70;99.90
9403;DHT22;4741;49.834;10.740;2023-07-30T22:01:17;15.60;99.90
9403;DHT22;4741;49.834;10.740;2023-07-30T22:03:44;15.60;99.90
9403;DHT22;4741;49.834;10.740;2023-07-30T22:06:10;15.40;99.90
9403;DHT22;4741;49.834;10.740;2023-07-30T22:08:37;15.40;99.90
9403;DHT22;4741;49.834;10.740;2023-07-30T22:11:03;15.30;99.90
9403;DHT22;4741;49.834;10.740;2023-07-30T22:13:30;15.30;99.90
9403;DHT22;4741;49.834;10.740;2023-07-30T22:15:57;15.20;99.90
9403;DHT22;4741;49.834;10.740;2023-07-30T22:18:23;15.10;99.90
9403;DHT22;4741;49.834;10.740;2023-07-30T22:20:50;15.20;99.90
9403;DHT22;4741;49.834;10.740;2023-07-30T22:23:17;15.20;99.90
9403;DHT22;4741;49.834;10.740;2023-07-30T22:25:43;15.20;99.90
9403;DHT22;4741;49.834;10.740;2023-07-30T22:28:10;15.30;99.90
9403;DHT22;4741;49.834;10.740;2023-07-30T22:30:40;15.20;99.90
9403;DHT22;4741;49.834;10.740;2023-07-30T22:33:07;15.30;99.90
9403;DHT22;4741;49.834;10.740;2023-07-30T22:35:34;15.30;99.90
9403;DHT22;4741;49.834;10.740;2023-07-30T22:38:01;15.30;99.90
9403;DHT22;4741;49.834;10.740;2023-07-30T22:40:28;15.40;99.90
9403;DHT22;4741;49.834;10.740;2023-07-30T22:42:56;15.50;99.90
9403;DHT22;4741;49.834;10.740;2023-07-30T22:45:22;15.50;99.90
9403;DHT22;4741;49.834;10.740;2023-07-30T22:47:49;15.60;99.90
9403;DHT22;4741;49.834;10.740;2023-07-30T22:50:16;15.50;99.90
9403;DHT22;4741;49.834;10.740;2023-07-30T22:52:43;15.50;99.90
9403;DHT22;4741;49.834;10.740;2023-07-30T22:55:09;15.50;99.90
9403;DHT22;4741;49.834;10.740;2023-07-30T22:57:36;15.50;99.90
9403;DHT22;4741;49.834;10.740;2023-07-30T23:00:03;15.60;99.90
9403;DHT22;4741;49.834;10.740;2023-07-30T23:02:31;15.70;99.90
9403;DHT22;4741;49.834;10.740;2023-07-30T23:04:58;15.70;99.90
9403;DHT22;4741;49.834;10.740;2023-07-30T23:07:25;15.70;99.90
9403;DHT22;4741;49.834;10.740;2023-07-30T23:09:51;15.80;99.90
9403;DHT22;4741;49.834;10.740;2023-07-30T23:12:18;15.80;99.90
9403;DHT22;4741;49.834;10.740;2023-07-30T23:14:44;15.80;99.90
9403;DHT22;4741;49.834;10.740;2023-07-30T23:17:11;15.80;99.90
9403;DHT22;4741;49.834;10.740;2023-07-30T23:19:38;15.80;99.90
9403;DHT22;4741;49.834;10.740;2023-07-30T23:22:04;15.80;99.90
9403;DHT22;4741;49.834;10.740;2023-07-30T23:24:32;15.90;99.90
9403;DHT22;4741;49.834;10.740;2023-07-30T23:26:59;15.90;99.90
9403;DHT22;4741;49.834;10.740;2023-07-30T23:29:25;15.70;99.90
9403;DHT22;4741;49.834;10.740;2023-07-30T23:31:52;16.00;99.90
9403;DHT22;4741;49.834;10.740;2023-07-30T23:34:19;16.00;99.90
9403;DHT22;4741;49.834;10.740;2023-07-30T23:39:13;16.00;99.90
9403;DHT22;4741;49.834;10.740;2023-07-30T23:41:40;16.00;99.90
9403;DHT22;4741;49.834;10.740;2023-07-30T23:44:06;16.10;99.90
9403;DHT22;4741;49.834;10.740;2023-07-30T23:46:33;16.10;99.90
9403;DHT22;4741;49.834;10.740;2023-07-30T23:49:00;16.20;99.90
9403;DHT22;4741;49.834;10.740;2023-07-30T23:51:26;16.20;99.90
9403;DHT22;4741;49.834;10.740;2023-07-30T23:53:55;16.20;99.90
9403;DHT22;4741;49.834;10.740;2023-07-30T23:56:22;16.20;99.90
9403;DHT22;4741;49.834;10.740;2023-07-30T23:58:49;16.30;99.90
